sensor_id;sensor_type;location;lat;lon;timestamp;temperature;humidity
11055;DHT22;5580;50.106;8.702;2022-12-18T00:01:19;-6.40;99.90
11055;DHT22;5580;50.106;8.702;2022-12-18T00:03:45;-6.40;99.90
11055;DHT22;5580;50.106;8.702;2022-12-18T00:06:11;-6.30;99.90
11055;DHT22;5580;50.106;8.702;2022-12-18T00:08:37;-6.30;99.90
11055;DHT22;5580;50.106;8.702;2022-12-18T00:11:07;-6.30;99.90
11055;DHT22;5580;50.106;8.702;2022-12-18T00:13:33;-6.30;99.90
11055;DHT22;5580;50.106;8.702;2022-12-18T00:16:03;-6.30;99.90
11055;DHT22;5580;50.106;8.702;2022-12-18T00:18:29;-6.40;99.90
11055;DHT22;5580;50.106;8.702;2022-12-18T00:20:59;-6.50;99.90
11055;DHT22;5580;50.106;8.702;2022-12-18T00:23:26;-6.40;99.90
11055;DHT22;5580;50.106;8.702;2022-12-18T00:25:52;-6.40;99.90
11055;DHT22;5580;50.106;8.702;2022-12-18T00:28:17;-6.30;99.90
11055;DHT22;5580;50.106;8.702;2022-12-18T00:30:43;-6.30;99.90
11055;DHT22;5580;50.106;8.702;2022-12-18T00:33:08;-6.30;99.90
11055;DHT22;5580;50.106;8.702;2022-12-18T00:35:34;-6.40;99.90
11055;DHT22;5580;50.106;8.702;2022-12-18T00:37:59;-6.40;99.90
11055;DHT22;5580;50.106;8.702;2022-12-18T00:40:25;-6.50;99.90
11055;DHT22;5580;50.106;8.702;2022-12-18T00:42:51;-6.50;99.90
11055;DHT22;5580;50.106;8.702;2022-12-18T00:45:28;-6.50;99.90
11055;DHT22;5580;50.106;8.702;2022-12-18T00:47:55;-6.50;99.90
11055;DHT22;5580;50.106;8.702;2022-12-18T00:50:22;-6.40;99.90
11055;DHT22;5580;50.106;8.702;2022-12-18T00:52:47;-6.40;99.90
11055;DHT22;5580;50.106;8.702;2022-12-18T00:55:13;-6.40;99.90
11055;DHT22;5580;50.106;8.702;2022-12-18T00:57:39;-6.40;99.90
11055;DHT22;5580;50.106;8.702;2022-12-18T01:00:06;-6.40;99.90
11055;DHT22;5580;50.106;8.702;2022-12-18T01:02:32;-6.40;99.90
11055;DHT22;5580;50.106;8.702;2022-12-18T01:04:58;-6.40;99.90
11055;DHT22;5580;50.106;8.702;2022-12-18T01:07:23;-6.50;99.90
11055;DHT22;5580;50.106;8.702;2022-12-18T01:09:49;-6.50;99.90
11055;DHT22;5580;50.106;8.702;2022-12-18T01:12:14;-6.50;99.90
11055;DHT22;5580;50.106;8.702;2022-12-18T01:14:40;-6.50;99.90
11055;DHT22;5580;50.106;8.702;2022-12-18T01:17:05;-6.50;99.90
11055;DHT22;5580;50.106;8.702;2022-12-18T01:19:31;-6.50;99.90
11055;DHT22;5580;50.106;8.702;2022-12-18T01:21:57;-6.50;99.90
11055;DHT22;5580;50.106;8.702;2022-12-18T01:24:23;-6.50;99.90
11055;DHT22;5580;50.106;8.702;2022-12-18T01:26:48;-6.40;99.90
11055;DHT22;5580;50.106;8.702;2022-12-18T01:29:14;-6.50;99.90
11055;DHT22;5580;50.106;8.702;2022-12-18T01:31:39;-6.40;99.90
11055;DHT22;5580;50.106;8.702;2022-12-18T01:34:05;-6.50;99.90
11055;DHT22;5580;50.106;8.702;2022-12-18T01:36:36;-6.40;99.90
11055;DHT22;5580;50.106;8.702;2022-12-18T01:39:04;-6.30;99.90
11055;DHT22;5580;50.106;8.702;2022-12-18T01:41:32;-6.30;99.90
11055;DHT22;5580;50.106;8.702;2022-12-18T01:44:47;-6.20;99.90
11055;DHT22;5580;50.106;8.702;2022-12-18T01:49:54;-6.30;99.90
11055;DHT22;5580;50.106;8.702;2022-12-18T01:52:21;-6.30;99.90
11055;DHT22;5580;50.106;8.702;2022-12-18T01:54:49;-6.40;99.90
11055;DHT22;5580;50.106;8.702;2022-12-18T01:57:16;-6.30;99.90
11055;DHT22;5580;50.106;8.702;2022-12-18T01:59:43;-6.30;99.90
11055;DHT22;5580;50.106;8.702;2022-12-18T02:02:11;-6.30;99.90
11055;DHT22;5580;50.106;8.702;2022-12-18T02:04:37;-6.30;99.90
11055;DHT22;5580;50.106;8.702;2022-12-18T02:07:25;-6.20;99.90
11055;DHT22;5580;50.106;8.702;2022-12-18T02:12:53;-6.30;99.90
11055;DHT22;5580;50.106;8.702;2022-12-18T02:16:17;-6.30;99.90
11055;DHT22;5580;50.106;8.702;2022-12-18T02:18:44;-6.40;99.90
11055;DHT22;5580;50.106;8.702;2022-12-18T02:26:27;-6.50;99.90
11055;DHT22;5580;50.106;8.702;2022-12-18T02:29:10;-6.50;99.90
11055;DHT22;5580;50.106;8.702;2022-12-18T02:31:47;-6.40;99.90
11055;DHT22;5580;50.106;8.702;2022-12-18T02:34:15;-6.40;99.90
11055;DHT22;5580;50.106;8.702;2022-12-18T02:36:43;-6.40;99.90
11055;DHT22;5580;50.106;8.702;2022-12-18T02:39:12;-6.50;99.90
11055;DHT22;5580;50.106;8.702;2022-12-18T02:41:38;-6.50;99.90
11055;DHT22;5580;50.106;8.702;2022-12-18T02:44:10;-6.50;99.90
11055;DHT22;5580;50.106;8.702;2022-12-18T02:46:49;-6.50;99.90
11055;DHT22;5580;50.106;8.702;2022-12-18T02:49:40;-6.50;99.90
11055;DHT22;5580;50.106;8.702;2022-12-18T03:00:35;-6.50;99.90
11055;DHT22;5580;50.106;8.702;2022-12-18T03:03:11;-6.50;99.90
11055;DHT22;5580;50.106;8.702;2022-12-18T03:05:47;-6.50;99.90
11055;DHT22;5580;50.106;8.702;2022-12-18T03:08:46;-6.50;99.90
11055;DHT22;5580;50.106;8.702;2022-12-18T03:11:14;-6.50;99.90
11055;DHT22;5580;50.106;8.702;2022-12-18T03:13:50;-6.50;99.90
11055;DHT22;5580;50.106;8.702;2022-12-18T03:16:23;-6.50;99.90
11055;DHT22;5580;50.106;8.702;2022-12-18T03:19:01;-6.50;99.90
11055;DHT22;5580;50.106;8.702;2022-12-18T03:21:33;-6.50;99.90
11055;DHT22;5580;50.106;8.702;2022-12-18T03:24:00;-6.40;99.90
11055;DHT22;5580;50.106;8.702;2022-12-18T03:26:29;-6.40;99.90
11055;DHT22;5580;50.106;8.702;2022-12-18T03:29:02;-6.50;99.90
11055;DHT22;5580;50.106;8.702;2022-12-18T03:31:32;-6.50;99.90
11055;DHT22;5580;50.106;8.702;2022-12-18T03:34:04;-6.40;99.90
11055;DHT22;5580;50.106;8.702;2022-12-18T03:36:33;-6.40;99.90
11055;DHT22;5580;50.106;8.702;2022-12-18T03:38:59;-6.50;99.90
11055;DHT22;5580;50.106;8.702;2022-12-18T03:41:33;-6.50;99.90
11055;DHT22;5580;50.106;8.702;2022-12-18T03:47:07;-6.60;99.90
11055;DHT22;5580;50.106;8.702;2022-12-18T03:50:03;-6.70;99.90
11055;DHT22;5580;50.106;8.702;2022-12-18T03:52:38;-6.60;99.90
11055;DHT22;5580;50.106;8.702;2022-12-18T03:55:07;-6.50;99.90
11055;DHT22;5580;50.106;8.702;2022-12-18T03:57:33;-6.50;99.90
11055;DHT22;5580;50.106;8.702;2022-12-18T04:00:12;-6.40;99.90
11055;DHT22;5580;50.106;8.702;2022-12-18T04:02:42;-6.40;99.90
11055;DHT22;5580;50.106;8.702;2022-12-18T04:05:10;-6.40;99.90
11055;DHT22;5580;50.106;8.702;2022-12-18T04:07:36;-6.50;99.90
11055;DHT22;5580;50.106;8.702;2022-12-18T04:10:03;-6.40;99.90
11055;DHT22;5580;50.106;8.702;2022-12-18T04:12:31;-6.40;99.90
11055;DHT22;5580;50.106;8.702;2022-12-18T04:14:57;-6.40;99.90
11055;DHT22;5580;50.106;8.702;2022-12-18T04:17:22;-6.40;99.90
11055;DHT22;5580;50.106;8.702;2022-12-18T04:19:52;-6.40;99.90
11055;DHT22;5580;50.106;8.702;2022-12-18T04:22:17;-6.30;99.90
11055;DHT22;5580;50.106;8.702;2022-12-18T04:24:43;-6.20;99.90
11055;DHT22;5580;50.106;8.702;2022-12-18T04:27:09;-6.30;99.90
11055;DHT22;5580;50.106;8.702;2022-12-18T04:29:34;-6.30;99.90
11055;DHT22;5580;50.106;8.702;2022-12-18T04:32:00;-6.20;99.90
11055;DHT22;5580;50.106;8.702;2022-12-18T04:34:25;-6.20;99.90
11055;DHT22;5580;50.106;8.702;2022-12-18T04:36:51;-6.30;99.90
11055;DHT22;5580;50.106;8.702;2022-12-18T04:39:16;-6.40;99.90
11055;DHT22;5580;50.106;8.702;2022-12-18T04:41:42;-6.40;99.90
11055;DHT22;5580;50.106;8.702;2022-12-18T04:44:08;-6.40;99.90
11055;DHT22;5580;50.106;8.702;2022-12-18T04:46:33;-6.40;99.90
11055;DHT22;5580;50.106;8.702;2022-12-18T04:48:59;-6.50;99.90
11055;DHT22;5580;50.106;8.702;2022-12-18T04:51:24;-6.50;99.90
11055;DHT22;5580;50.106;8.702;2022-12-18T04:53:50;-6.50;99.90
11055;DHT22;5580;50.106;8.702;2022-12-18T04:56:16;-6.50;99.90
11055;DHT22;5580;50.106;8.702;2022-12-18T04:58:43;-6.50;99.90
11055;DHT22;5580;50.106;8.702;2022-12-18T05:01:12;-6.60;99.90
11055;DHT22;5580;50.106;8.702;2022-12-18T05:03:38;-6.70;99.90
11055;DHT22;5580;50.106;8.702;2022-12-18T05:06:05;-6.70;99.90
11055;DHT22;5580;50.106;8.702;2022-12-18T05:08:31;-6.80;99.90
11055;DHT22;5580;50.106;8.702;2022-12-18T05:11:01;-6.70;99.90
11055;DHT22;5580;50.106;8.702;2022-12-18T05:13:27;-6.70;99.90
11055;DHT22;5580;50.106;8.702;2022-12-18T05:15:54;-6.70;99.90
11055;DHT22;5580;50.106;8.702;2022-12-18T05:18:20;-6.60;99.90
11055;DHT22;5580;50.106;8.702;2022-12-18T05:20:46;-6.60;99.90
11055;DHT22;5580;50.106;8.702;2022-12-18T05:23:11;-6.50;99.90
11055;DHT22;5580;50.106;8.702;2022-12-18T05:25:37;-6.50;99.90
11055;DHT22;5580;50.106;8.702;2022-12-18T05:28:03;-6.50;99.90
11055;DHT22;5580;50.106;8.702;2022-12-18T05:30:31;-6.40;99.90
11055;DHT22;5580;50.106;8.702;2022-12-18T05:32:57;-6.40;99.90
11055;DHT22;5580;50.106;8.702;2022-12-18T05:35:22;-6.30;99.90
11055;DHT22;5580;50.106;8.702;2022-12-18T05:37:48;-6.30;99.90
11055;DHT22;5580;50.106;8.702;2022-12-18T05:40:13;-6.30;99.90
11055;DHT22;5580;50.106;8.702;2022-12-18T05:42:39;-6.30;99.90
11055;DHT22;5580;50.106;8.702;2022-12-18T05:45:05;-6.30;99.90
11055;DHT22;5580;50.106;8.702;2022-12-18T05:47:31;-6.30;99.90
11055;DHT22;5580;50.106;8.702;2022-12-18T05:49:57;-6.30;99.90
11055;DHT22;5580;50.106;8.702;2022-12-18T05:52:22;-6.30;99.90
11055;DHT22;5580;50.106;8.702;2022-12-18T05:54:48;-6.20;99.90
11055;DHT22;5580;50.106;8.702;2022-12-18T05:57:13;-6.20;99.90
11055;DHT22;5580;50.106;8.702;2022-12-18T05:59:39;-6.30;99.90
11055;DHT22;5580;50.106;8.702;2022-12-18T06:02:04;-6.30;99.90
11055;DHT22;5580;50.106;8.702;2022-12-18T06:04:30;-6.30;99.90
11055;DHT22;5580;50.106;8.702;2022-12-18T06:06:56;-6.40;99.90
11055;DHT22;5580;50.106;8.702;2022-12-18T06:09:22;-6.50;99.90
11055;DHT22;5580;50.106;8.702;2022-12-18T06:11:47;-6.50;99.90
11055;DHT22;5580;50.106;8.702;2022-12-18T06:14:13;-6.40;99.90
11055;DHT22;5580;50.106;8.702;2022-12-18T06:16:39;-6.40;99.90
11055;DHT22;5580;50.106;8.702;2022-12-18T06:19:05;-6.40;99.90
11055;DHT22;5580;50.106;8.702;2022-12-18T06:21:31;-6.30;99.90
11055;DHT22;5580;50.106;8.702;2022-12-18T06:23:57;-6.40;99.90
11055;DHT22;5580;50.106;8.702;2022-12-18T06:26:23;-6.50;99.90
11055;DHT22;5580;50.106;8.702;2022-12-18T06:28:49;-6.70;99.90
11055;DHT22;5580;50.106;8.702;2022-12-18T06:31:15;-6.80;99.90
11055;DHT22;5580;50.106;8.702;2022-12-18T06:33:40;-6.90;99.90
11055;DHT22;5580;50.106;8.702;2022-12-18T06:36:09;-7.00;99.90
11055;DHT22;5580;50.106;8.702;2022-12-18T06:38:36;-7.10;99.90
11055;DHT22;5580;50.106;8.702;2022-12-18T06:41:09;-7.10;99.90
11055;DHT22;5580;50.106;8.702;2022-12-18T06:43:35;-7.10;99.90
11055;DHT22;5580;50.106;8.702;2022-12-18T06:46:02;-7.10;99.90
11055;DHT22;5580;50.106;8.702;2022-12-18T06:48:29;-7.00;99.90
11055;DHT22;5580;50.106;8.702;2022-12-18T06:50:55;-7.00;99.90
11055;DHT22;5580;50.106;8.702;2022-12-18T06:53:20;-7.10;99.90
11055;DHT22;5580;50.106;8.702;2022-12-18T06:55:46;-7.00;99.90
11055;DHT22;5580;50.106;8.702;2022-12-18T06:58:12;-6.90;99.90
11055;DHT22;5580;50.106;8.702;2022-12-18T07:00:37;-6.80;99.90
11055;DHT22;5580;50.106;8.702;2022-12-18T07:03:03;-6.70;99.90
11055;DHT22;5580;50.106;8.702;2022-12-18T07:05:29;-6.70;99.90
11055;DHT22;5580;50.106;8.702;2022-12-18T07:07:54;-6.60;99.90
11055;DHT22;5580;50.106;8.702;2022-12-18T07:10:20;-6.60;99.90
11055;DHT22;5580;50.106;8.702;2022-12-18T07:12:45;-6.50;99.90
11055;DHT22;5580;50.106;8.702;2022-12-18T07:15:11;-6.50;99.90
11055;DHT22;5580;50.106;8.702;2022-12-18T07:17:37;-6.40;99.90
11055;DHT22;5580;50.106;8.702;2022-12-18T07:20:03;-6.30;99.90
11055;DHT22;5580;50.106;8.702;2022-12-18T07:22:29;-6.30;99.90
11055;DHT22;5580;50.106;8.702;2022-12-18T07:24:55;-6.30;99.90
11055;DHT22;5580;50.106;8.702;2022-12-18T07:27:21;-6.30;99.90
11055;DHT22;5580;50.106;8.702;2022-12-18T07:29:47;-6.30;99.90
11055;DHT22;5580;50.106;8.702;2022-12-18T07:32:12;-6.20;99.90
11055;DHT22;5580;50.106;8.702;2022-12-18T07:34:38;-6.20;99.90
11055;DHT22;5580;50.106;8.702;2022-12-18T07:37:04;-6.20;99.90
11055;DHT22;5580;50.106;8.702;2022-12-18T07:39:29;-6.20;99.90
11055;DHT22;5580;50.106;8.702;2022-12-18T07:41:56;-6.30;99.90
11055;DHT22;5580;50.106;8.702;2022-12-18T07:44:40;-6.40;99.90
11055;DHT22;5580;50.106;8.702;2022-12-18T07:47:05;-6.40;99.90
11055;DHT22;5580;50.106;8.702;2022-12-18T07:49:31;-6.50;99.90
11055;DHT22;5580;50.106;8.702;2022-12-18T07:51:57;-6.50;99.90
11055;DHT22;5580;50.106;8.702;2022-12-18T07:54:24;-6.60;99.90
11055;DHT22;5580;50.106;8.702;2022-12-18T07:56:51;-6.60;99.90
11055;DHT22;5580;50.106;8.702;2022-12-18T07:59:17;-6.60;99.90
11055;DHT22;5580;50.106;8.702;2022-12-18T08:01:43;-6.60;99.90
11055;DHT22;5580;50.106;8.702;2022-12-18T08:04:09;-6.60;99.90
11055;DHT22;5580;50.106;8.702;2022-12-18T08:06:34;-6.80;99.90
11055;DHT22;5580;50.106;8.702;2022-12-18T08:09:00;-6.80;99.90
11055;DHT22;5580;50.106;8.702;2022-12-18T08:11:27;-6.90;99.90
11055;DHT22;5580;50.106;8.702;2022-12-18T08:13:54;-7.00;99.90
11055;DHT22;5580;50.106;8.702;2022-12-18T08:16:20;-7.10;99.90
11055;DHT22;5580;50.106;8.702;2022-12-18T08:18:46;-7.10;99.90
11055;DHT22;5580;50.106;8.702;2022-12-18T08:21:14;-7.10;99.90
11055;DHT22;5580;50.106;8.702;2022-12-18T08:23:41;-7.00;99.90
11055;DHT22;5580;50.106;8.702;2022-12-18T08:26:06;-6.90;99.90
11055;DHT22;5580;50.106;8.702;2022-12-18T08:28:32;-6.70;99.90
11055;DHT22;5580;50.106;8.702;2022-12-18T08:30:58;-6.60;99.90
11055;DHT22;5580;50.106;8.702;2022-12-18T08:33:24;-6.40;99.90
11055;DHT22;5580;50.106;8.702;2022-12-18T08:35:50;-6.30;99.90
11055;DHT22;5580;50.106;8.702;2022-12-18T08:38:15;-6.20;99.90
11055;DHT22;5580;50.106;8.702;2022-12-18T08:40:41;-6.20;99.90
11055;DHT22;5580;50.106;8.702;2022-12-18T08:43:09;-6.20;99.90
11055;DHT22;5580;50.106;8.702;2022-12-18T08:45:54;-6.20;99.90
11055;DHT22;5580;50.106;8.702;2022-12-18T08:48:20;-6.20;99.90
11055;DHT22;5580;50.106;8.702;2022-12-18T08:50:54;-6.30;99.90
11055;DHT22;5580;50.106;8.702;2022-12-18T08:53:20;-6.30;99.90
11055;DHT22;5580;50.106;8.702;2022-12-18T08:55:46;-6.30;99.90
11055;DHT22;5580;50.106;8.702;2022-12-18T08:58:11;-6.30;99.90
11055;DHT22;5580;50.106;8.702;2022-12-18T09:00:37;-6.30;99.90
11055;DHT22;5580;50.106;8.702;2022-12-18T09:03:02;-6.40;99.90
11055;DHT22;5580;50.106;8.702;2022-12-18T09:05:28;-6.40;99.90
11055;DHT22;5580;50.106;8.702;2022-12-18T09:07:53;-6.40;99.90
11055;DHT22;5580;50.106;8.702;2022-12-18T09:10:19;-6.40;99.90
11055;DHT22;5580;50.106;8.702;2022-12-18T09:12:44;-6.30;99.90
11055;DHT22;5580;50.106;8.702;2022-12-18T09:15:10;-6.20;99.90
11055;DHT22;5580;50.106;8.702;2022-12-18T09:17:41;-6.20;99.90
11055;DHT22;5580;50.106;8.702;2022-12-18T09:20:07;-6.20;99.90
11055;DHT22;5580;50.106;8.702;2022-12-18T09:22:33;-6.10;99.90
11055;DHT22;5580;50.106;8.702;2022-12-18T09:24:58;-6.00;99.90
11055;DHT22;5580;50.106;8.702;2022-12-18T09:27:24;-6.00;99.90
11055;DHT22;5580;50.106;8.702;2022-12-18T09:29:50;-5.90;99.90
11055;DHT22;5580;50.106;8.702;2022-12-18T09:32:15;-5.90;99.90
11055;DHT22;5580;50.106;8.702;2022-12-18T09:34:41;-5.90;99.90
11055;DHT22;5580;50.106;8.702;2022-12-18T09:37:06;-5.90;99.90
11055;DHT22;5580;50.106;8.702;2022-12-18T09:39:32;-5.80;99.90
11055;DHT22;5580;50.106;8.702;2022-12-18T09:41:58;-5.80;99.90
11055;DHT22;5580;50.106;8.702;2022-12-18T09:44:33;-5.80;99.90
11055;DHT22;5580;50.106;8.702;2022-12-18T09:47:34;-5.80;99.90
11055;DHT22;5580;50.106;8.702;2022-12-18T09:50:03;-5.70;99.90
11055;DHT22;5580;50.106;8.702;2022-12-18T09:55:09;-5.60;99.90
11055;DHT22;5580;50.106;8.702;2022-12-18T09:57:40;-5.50;99.90
11055;DHT22;5580;50.106;8.702;2022-12-18T10:00:19;-5.50;99.90
11055;DHT22;5580;50.106;8.702;2022-12-18T10:02:46;-5.40;99.90
11055;DHT22;5580;50.106;8.702;2022-12-18T10:05:40;-5.40;99.90
11055;DHT22;5580;50.106;8.702;2022-12-18T10:08:17;-5.30;99.90
11055;DHT22;5580;50.106;8.702;2022-12-18T10:10:53;-5.30;99.90
11055;DHT22;5580;50.106;8.702;2022-12-18T10:21:25;-4.80;99.90
11055;DHT22;5580;50.106;8.702;2022-12-18T10:24:20;-4.70;99.90
11055;DHT22;5580;50.106;8.702;2022-12-18T10:26:49;-4.60;99.90
11055;DHT22;5580;50.106;8.702;2022-12-18T10:29:15;-4.60;99.90
11055;DHT22;5580;50.106;8.702;2022-12-18T10:31:42;-4.60;99.90
11055;DHT22;5580;50.106;8.702;2022-12-18T10:34:11;-4.50;99.90
11055;DHT22;5580;50.106;8.702;2022-12-18T10:36:40;-4.40;99.90
11055;DHT22;5580;50.106;8.702;2022-12-18T10:39:20;-4.40;99.90
11055;DHT22;5580;50.106;8.702;2022-12-18T10:41:48;-4.30;99.90
11055;DHT22;5580;50.106;8.702;2022-12-18T10:44:18;-4.40;99.90
11055;DHT22;5580;50.106;8.702;2022-12-18T10:46:46;-4.30;99.90
11055;DHT22;5580;50.106;8.702;2022-12-18T10:49:40;-4.30;99.90
11055;DHT22;5580;50.106;8.702;2022-12-18T10:52:15;-4.20;99.90
11055;DHT22;5580;50.106;8.702;2022-12-18T10:54:53;-4.20;99.90
11055;DHT22;5580;50.106;8.702;2022-12-18T10:57:34;-4.10;99.90
11055;DHT22;5580;50.106;8.702;2022-12-18T11:00:33;-4.10;99.90
11055;DHT22;5580;50.106;8.702;2022-12-18T11:03:01;-4.10;99.90
11055;DHT22;5580;50.106;8.702;2022-12-18T11:05:35;-4.10;99.90
11055;DHT22;5580;50.106;8.702;2022-12-18T11:08:02;-4.00;99.90
11055;DHT22;5580;50.106;8.702;2022-12-18T11:10:47;-4.10;99.90
11055;DHT22;5580;50.106;8.702;2022-12-18T11:13:21;-4.00;99.90
11055;DHT22;5580;50.106;8.702;2022-12-18T11:15:47;-4.00;99.90
11055;DHT22;5580;50.106;8.702;2022-12-18T11:18:32;-4.00;99.90
11055;DHT22;5580;50.106;8.702;2022-12-18T11:23:31;-4.00;99.90
11055;DHT22;5580;50.106;8.702;2022-12-18T11:26:02;-4.00;99.90
11055;DHT22;5580;50.106;8.702;2022-12-18T11:28:35;-3.90;99.90
11055;DHT22;5580;50.106;8.702;2022-12-18T11:33:50;-3.80;99.90
11055;DHT22;5580;50.106;8.702;2022-12-18T11:36:17;-3.90;99.90
11055;DHT22;5580;50.106;8.702;2022-12-18T11:38:45;-4.00;99.90
11055;DHT22;5580;50.106;8.702;2022-12-18T11:41:21;-4.00;99.90
11055;DHT22;5580;50.106;8.702;2022-12-18T11:44:00;-4.00;99.90
11055;DHT22;5580;50.106;8.702;2022-12-18T11:46:45;-4.00;99.90
11055;DHT22;5580;50.106;8.702;2022-12-18T11:49:26;-3.90;99.90
11055;DHT22;5580;50.106;8.702;2022-12-18T11:54:25;-3.80;99.90
11055;DHT22;5580;50.106;8.702;2022-12-18T11:56:58;-3.80;99.90
11055;DHT22;5580;50.106;8.702;2022-12-18T12:10:22;-3.70;99.90
11055;DHT22;5580;50.106;8.702;2022-12-18T12:24:09;-3.60;99.90
11055;DHT22;5580;50.106;8.702;2022-12-18T12:26:49;-3.60;99.90
11055;DHT22;5580;50.106;8.702;2022-12-18T12:29:39;-3.50;99.90
11055;DHT22;5580;50.106;8.702;2022-12-18T12:37:27;-3.40;99.90
11055;DHT22;5580;50.106;8.702;2022-12-18T12:39:58;-3.40;99.90
11055;DHT22;5580;50.106;8.702;2022-12-18T12:42:33;-3.40;99.90
11055;DHT22;5580;50.106;8.702;2022-12-18T12:45:25;-3.40;99.90
11055;DHT22;5580;50.106;8.702;2022-12-18T12:47:53;-3.40;99.90
11055;DHT22;5580;50.106;8.702;2022-12-18T12:50:21;-3.40;99.90
11055;DHT22;5580;50.106;8.702;2022-12-18T12:52:55;-3.40;99.90
11055;DHT22;5580;50.106;8.702;2022-12-18T12:55:24;-3.40;99.90
11055;DHT22;5580;50.106;8.702;2022-12-18T13:00:39;-3.30;99.90
11055;DHT22;5580;50.106;8.702;2022-12-18T13:06:02;-3.30;99.90
11055;DHT22;5580;50.106;8.702;2022-12-18T13:08:32;-3.30;99.90
11055;DHT22;5580;50.106;8.702;2022-12-18T13:10:59;-3.30;99.90
11055;DHT22;5580;50.106;8.702;2022-12-18T13:13:56;-3.30;99.90
11055;DHT22;5580;50.106;8.702;2022-12-18T13:16:24;-3.30;99.90
11055;DHT22;5580;50.106;8.702;2022-12-18T13:18:54;-3.30;99.90
11055;DHT22;5580;50.106;8.702;2022-12-18T13:21:30;-3.30;99.90
11055;DHT22;5580;50.106;8.702;2022-12-18T13:23:56;-3.20;99.90
11055;DHT22;5580;50.106;8.702;2022-12-18T13:26:39;-3.20;99.90
11055;DHT22;5580;50.106;8.702;2022-12-18T13:29:05;-3.20;99.90
11055;DHT22;5580;50.106;8.702;2022-12-18T13:34:16;-3.10;99.90
11055;DHT22;5580;50.106;8.702;2022-12-18T13:36:42;-3.10;99.90
11055;DHT22;5580;50.106;8.702;2022-12-18T13:41:42;-3.10;99.90
11055;DHT22;5580;50.106;8.702;2022-12-18T13:44:12;-3.10;99.90
11055;DHT22;5580;50.106;8.702;2022-12-18T13:46:49;-3.00;99.90
11055;DHT22;5580;50.106;8.702;2022-12-18T13:49:22;-3.00;99.90
11055;DHT22;5580;50.106;8.702;2022-12-18T13:51:53;-3.00;99.90
11055;DHT22;5580;50.106;8.702;2022-12-18T13:54:35;-3.00;99.90
11055;DHT22;5580;50.106;8.702;2022-12-18T13:57:02;-2.90;99.90
11055;DHT22;5580;50.106;8.702;2022-12-18T13:59:37;-2.90;99.90
11055;DHT22;5580;50.106;8.702;2022-12-18T14:02:17;-2.90;99.90
11055;DHT22;5580;50.106;8.702;2022-12-18T14:04:46;-2.90;99.90
11055;DHT22;5580;50.106;8.702;2022-12-18T14:07:15;-2.90;99.90
11055;DHT22;5580;50.106;8.702;2022-12-18T14:10:01;-2.90;99.90
11055;DHT22;5580;50.106;8.702;2022-12-18T14:12:30;-2.90;99.90
11055;DHT22;5580;50.106;8.702;2022-12-18T14:15:27;-3.00;99.90
11055;DHT22;5580;50.106;8.702;2022-12-18T14:18:03;-3.00;99.90
11055;DHT22;5580;50.106;8.702;2022-12-18T14:20:43;-2.90;99.90
11055;DHT22;5580;50.106;8.702;2022-12-18T14:23:39;-2.90;99.90
11055;DHT22;5580;50.106;8.702;2022-12-18T14:26:24;-2.90;99.90
11055;DHT22;5580;50.106;8.702;2022-12-18T14:28:52;-2.90;99.90
11055;DHT22;5580;50.106;8.702;2022-12-18T14:31:21;-2.90;99.90
11055;DHT22;5580;50.106;8.702;2022-12-18T14:33:47;-2.90;99.90
11055;DHT22;5580;50.106;8.702;2022-12-18T14:36:17;-2.90;99.90
11055;DHT22;5580;50.106;8.702;2022-12-18T14:38:43;-2.90;99.90
11055;DHT22;5580;50.106;8.702;2022-12-18T14:41:14;-2.90;99.90
11055;DHT22;5580;50.106;8.702;2022-12-18T14:43:43;-2.90;99.90
11055;DHT22;5580;50.106;8.702;2022-12-18T14:46:29;-2.90;99.90
11055;DHT22;5580;50.106;8.702;2022-12-18T14:48:56;-2.90;99.90
11055;DHT22;5580;50.106;8.702;2022-12-18T14:51:24;-2.90;99.90
11055;DHT22;5580;50.106;8.702;2022-12-18T14:53:59;-3.00;99.90
11055;DHT22;5580;50.106;8.702;2022-12-18T14:56:34;-2.90;99.90
11055;DHT22;5580;50.106;8.702;2022-12-18T14:59:05;-3.00;99.90
11055;DHT22;5580;50.106;8.702;2022-12-18T15:02:01;-3.00;99.90
11055;DHT22;5580;50.106;8.702;2022-12-18T15:07:26;-3.00;99.90
11055;DHT22;5580;50.106;8.702;2022-12-18T15:10:09;-3.10;99.90
11055;DHT22;5580;50.106;8.702;2022-12-18T15:15:05;-3.10;99.90
11055;DHT22;5580;50.106;8.702;2022-12-18T15:17:30;-3.10;99.90
11055;DHT22;5580;50.106;8.702;2022-12-18T15:20:09;-3.10;99.90
11055;DHT22;5580;50.106;8.702;2022-12-18T15:22:36;-3.10;99.90
11055;DHT22;5580;50.106;8.702;2022-12-18T15:25:03;-3.10;99.90
11055;DHT22;5580;50.106;8.702;2022-12-18T15:27:46;-3.00;99.90
11055;DHT22;5580;50.106;8.702;2022-12-18T15:30:19;-3.00;99.90
11055;DHT22;5580;50.106;8.702;2022-12-18T15:32:46;-3.00;99.90
11055;DHT22;5580;50.106;8.702;2022-12-18T15:37:43;-2.90;99.90
11055;DHT22;5580;50.106;8.702;2022-12-18T15:40:13;-2.90;99.90
11055;DHT22;5580;50.106;8.702;2022-12-18T15:42:39;-2.80;99.90
11055;DHT22;5580;50.106;8.702;2022-12-18T15:45:23;-2.80;99.90
11055;DHT22;5580;50.106;8.702;2022-12-18T15:47:49;-2.80;99.90
11055;DHT22;5580;50.106;8.702;2022-12-18T15:50:14;-2.90;99.90
11055;DHT22;5580;50.106;8.702;2022-12-18T15:52:43;-2.90;99.90
11055;DHT22;5580;50.106;8.702;2022-12-18T15:55:18;-2.80;99.90
11055;DHT22;5580;50.106;8.702;2022-12-18T15:58:04;-2.80;99.90
11055;DHT22;5580;50.106;8.702;2022-12-18T16:00:31;-2.80;99.90
11055;DHT22;5580;50.106;8.702;2022-12-18T16:02:57;-2.80;99.90
11055;DHT22;5580;50.106;8.702;2022-12-18T16:05:23;-2.90;99.90
11055;DHT22;5580;50.106;8.702;2022-12-18T16:07:49;-2.90;99.90
11055;DHT22;5580;50.106;8.702;2022-12-18T16:10:15;-2.80;99.90
11055;DHT22;5580;50.106;8.702;2022-12-18T16:12:41;-2.80;99.90
11055;DHT22;5580;50.106;8.702;2022-12-18T16:15:09;-2.70;99.90
11055;DHT22;5580;50.106;8.702;2022-12-18T16:17:35;-2.70;99.90
11055;DHT22;5580;50.106;8.702;2022-12-18T16:20:01;-2.70;99.90
11055;DHT22;5580;50.106;8.702;2022-12-18T16:22:28;-2.70;99.90
11055;DHT22;5580;50.106;8.702;2022-12-18T16:24:55;-2.70;99.90
11055;DHT22;5580;50.106;8.702;2022-12-18T16:27:21;-2.80;99.90
11055;DHT22;5580;50.106;8.702;2022-12-18T16:29:47;-2.70;99.90
11055;DHT22;5580;50.106;8.702;2022-12-18T16:32:16;-2.70;99.90
11055;DHT22;5580;50.106;8.702;2022-12-18T16:34:42;-2.70;99.90
11055;DHT22;5580;50.106;8.702;2022-12-18T16:37:11;-2.70;99.90
11055;DHT22;5580;50.106;8.702;2022-12-18T16:39:37;-2.60;99.90
11055;DHT22;5580;50.106;8.702;2022-12-18T16:42:15;-2.70;99.90
11055;DHT22;5580;50.106;8.702;2022-12-18T16:44:45;-2.60;99.90
11055;DHT22;5580;50.106;8.702;2022-12-18T16:47:10;-2.60;99.90
11055;DHT22;5580;50.106;8.702;2022-12-18T16:49:36;-2.60;99.90
11055;DHT22;5580;50.106;8.702;2022-12-18T16:52:03;-2.60;99.90
11055;DHT22;5580;50.106;8.702;2022-12-18T16:54:29;-2.60;99.90
11055;DHT22;5580;50.106;8.702;2022-12-18T16:56:56;-2.60;99.90
11055;DHT22;5580;50.106;8.702;2022-12-18T16:59:21;-2.50;99.90
11055;DHT22;5580;50.106;8.702;2022-12-18T17:01:47;-2.50;99.90
11055;DHT22;5580;50.106;8.702;2022-12-18T17:04:13;-2.50;99.90
11055;DHT22;5580;50.106;8.702;2022-12-18T17:06:41;-2.50;99.90
11055;DHT22;5580;50.106;8.702;2022-12-18T17:09:12;-2.50;99.90
11055;DHT22;5580;50.106;8.702;2022-12-18T17:11:39;-2.50;99.90
11055;DHT22;5580;50.106;8.702;2022-12-18T17:14:07;-2.40;99.90
11055;DHT22;5580;50.106;8.702;2022-12-18T17:16:33;-2.40;99.90
11055;DHT22;5580;50.106;8.702;2022-12-18T17:18:58;-2.40;99.90
11055;DHT22;5580;50.106;8.702;2022-12-18T17:21:24;-2.40;99.90
11055;DHT22;5580;50.106;8.702;2022-12-18T17:23:50;-2.30;99.90
11055;DHT22;5580;50.106;8.702;2022-12-18T17:26:15;-2.20;99.90
11055;DHT22;5580;50.106;8.702;2022-12-18T17:28:41;-2.20;99.90